Time;durP1;ratioP1;P1;durP2;ratioP2;P2;SDS_P1;SDS_P2;PMS_P1;PMS_P2;Temp;Humidity;BMP_temperature;BMP_pressure;BME280_temperature;BME280_humidity;BME280_pressure;Samples;Min_cycle;Max_cycle;Signal;HPM_P1;HPM_P2
2023/10/26 05:17:07;;;;;;;;;;;;;;;;;;4959534;28;19930;-46
2023/10/26 05:19:33;;;;;;;;;;;;;;;;;;4969898;28;19925;-42
2023/10/26 05:21:58;;;;;;;;;;;;;;;;;;4964183;28;20292;-41
2023/10/26 05:24:24;;;;;;;;;;;;;;;;;;4953454;29;19915;-43
2023/10/26 05:26:50;;;;;;;;;;;;;;;;;;4953222;29;19993;-41
2023/10/26 05:29:16;;;;;;;;;;;;;;;;;;4953251;29;19914;-41
2023/10/26 05:31:42;;;;;;;;;;;;;;;;;;4953329;29;20380;-44
2023/10/26 05:34:08;;;;;;;;;;;;;;;;;;4953269;29;19958;-42
2023/10/26 05:36:34;;;;;;;;;;;;;;;;;;4953104;29;19911;-46
2023/10/26 05:39:00;;;;;;;;;;;;;;;;;;4953362;29;20004;-41
2023/10/26 05:41:25;;;;;;;;;;;;;;;;;;4953424;29;19910;-43
2023/10/26 05:43:51;;;;;;;;;;;;;;;;;;4952795;28;20326;-43
2023/10/26 05:46:18;;;;;;;;;;;;;;;;;;4948830;29;19910;-46
2023/10/26 05:48:44;;;;;;;;;;;;;;;;;;4953698;29;20001;-44
2023/10/26 05:51:10;;;;;;;;;;;;;;;;;;4953715;29;20002;-44
2023/10/26 05:53:36;;;;;;;;;;;;;;;;;;4953502;29;20392;-45
2023/10/26 05:56:03;;;;;;;;;;;;;;;;;;4951751;28;20408;-43
2023/10/26 05:58:29;;;;;;;;;;;;;;;;;;4951771;28;19914;-42
2023/10/26 06:00:55;;;;;;;;;;;;;;;;;;4953029;28;19915;-42
2023/10/26 06:03:21;;;;;;;;;;;;;;;;;;4952428;28;19922;-41
2023/10/26 06:05:50;;;;;;;;;;;;;;;;;;4952457;28;19997;-43
2023/10/26 06:08:16;;;;;;;;;;;;;;;;;;4951256;28;19918;-45
2023/10/26 06:10:41;;;;;;;;;;;;;;;;;;4957728;28;19978;-41
2023/10/26 06:13:07;;;;;;;;;;;;;;;;;;4952624;29;19910;-43
2023/10/26 06:15:34;;;;;;;;;;;;;;;;;;4967977;28;20423;-44
2023/10/26 06:17:59;;;;;;;;;;;;;;;;;;4972169;28;19918;-46
2023/10/26 06:20:27;;;;;;;;;;;;;;;;;;4971908;28;19914;-44
2023/10/26 06:22:53;;;;;;;;;;;;;;;;;;4971846;28;19921;-41
2023/10/26 06:25:20;;;;;;;;;;;;;;;;;;4970829;28;19910;-42
2023/10/26 06:27:46;;;;;;;;;;;;;;;;;;4971844;28;19981;-41
2023/10/26 06:30:12;;;;;;;;;;;;;;;;;;4968324;28;19918;-42
2023/10/26 06:32:38;;;;;;;;;;;;;;;;;;4962966;28;19914;-42
2023/10/26 06:35:03;;;;;;;;;;;;;;;;;;4967222;28;19922;-44
2023/10/26 06:37:29;;;;;;;;;;;;;;;;;;4971342;28;19929;-44
2023/10/26 06:39:55;;;;;;;;;;;;;;;;;;4971613;28;19941;-43
2023/10/26 06:42:21;;;;;;;;;;;;;;;;;;4971597;28;19910;-43
2023/10/26 06:44:47;;;;;;;;;;;;;;;;;;4971751;28;19910;-44
2023/10/26 06:47:13;;;;;;;;;;;;;;;;;;4971445;28;19906;-44
2023/10/26 06:49:42;;;;;;;;;;;;;;;;;;4971768;28;19910;-41
2023/10/26 06:52:08;;;;;;;;;;;;;;;;;;4971449;28;19906;-43
2023/10/26 06:54:34;;;;;;;;;;;;;;;;;;4971683;28;19914;-44
2023/10/26 06:57:00;;;;;;;;;;;;;;;;;;4971595;28;20256;-43
2023/10/26 06:59:26;;;;;;;;;;;;;;;;;;4960660;28;19970;-42
2023/10/26 07:01:53;;;;;;;;;;;;;;;;;;4967269;28;20404;-43
2023/10/26 07:04:19;;;;;;;;;;;;;;;;;;4964390;28;19911;-42
2023/10/26 07:06:45;;;;;;;;;;;;;;;;;;4969524;28;19921;-41
2023/10/26 07:09:11;;;;;;;;;;;;;;;;;;4950937;29;20307;-45
2023/10/26 07:11:37;;;;;;;;;;;;;;;;;;4951896;29;19911;-43
2023/10/26 07:14:03;;;;;;;;;;;;;;;;;;4952095;29;19953;-44
2023/10/26 07:16:28;;;;;;;;;;;;;;;;;;4952096;29;19910;-42
2023/10/26 07:18:54;;;;;;;;;;;;;;;;;;4951759;29;19918;-44
2023/10/26 07:21:20;;;;;;;;;;;;;;;;;;4951965;29;19917;-41
2023/10/26 07:23:46;;;;;;;;;;;;;;;;;;4952068;29;20294;-44
2023/10/26 07:26:12;;;;;;;;;;;;;;;;;;4951747;29;19910;-43
2023/10/26 07:28:38;;;;;;;;;;;;;;;;;;4949969;29;20031;-41
2023/10/26 07:31:04;;;;;;;;;;;;;;;;;;4948930;29;19921;-40
2023/10/26 07:33:30;;;;;;;;;;;;;;;;;;4965513;28;19961;-42
2023/10/26 07:35:56;;;;;;;;;;;;;;;;;;4953464;28;19917;-43
2023/10/26 07:38:24;;;;;;;;;;;;;;;;;;4955578;29;19910;-45
2023/10/26 07:40:50;;;;;;;;;;;;;;;;;;4955340;29;19918;-44
2023/10/26 07:43:16;;;;;;;;;;;;;;;;;;4954275;29;19918;-44
2023/10/26 07:45:42;;;;;;;;;;;;;;;;;;4955178;29;20430;-41
2023/10/26 07:48:07;;;;;;;;;;;;;;;;;;4955148;29;20005;-45
2023/10/26 07:50:33;;;;;;;;;;;;;;;;;;4955603;29;19918;-43
2023/10/26 07:53:00;;;;;;;;;;;;;;;;;;4969675;28;19919;-43
2023/10/26 07:55:25;;;;;;;;;;;;;;;;;;4955118;29;19929;-43
2023/10/26 07:57:51;;;;;;;;;;;;;;;;;;4953821;29;20005;-43
2023/10/26 08:00:17;;;;;;;;;;;;;;;;;;4954072;29;19972;-43
2023/10/26 08:02:43;;;;;;;;;;;;;;;;;;4952985;29;19914;-44
2023/10/26 08:05:09;;;;;;;;;;;;;;;;;;4954072;29;20339;-41
2023/10/26 08:07:35;;;;;;;;;;;;;;;;;;4954034;29;19907;-42
2023/10/26 08:10:01;;;;;;;;;;;;;;;;;;4953702;29;19974;-44
2023/10/26 08:12:27;;;;;;;;;;;;;;;;;;4953619;29;19911;-45
2023/10/26 08:14:55;;;;;;;;;;;;;;;;;;4953469;29;19914;-43
2023/10/26 08:17:21;;;;;;;;;;;;;;;;;;4953166;29;20020;-41
2023/10/26 08:19:47;;;;;;;;;;;;;;;;;;4953792;29;19914;-42
2023/10/26 08:22:13;;;;;;;;;;;;;;;;;;4953112;29;20387;-42
2023/10/26 08:24:39;;;;;;;;;;;;;;;;;;4953373;29;19974;-42
2023/10/26 08:27:05;;;;;;;;;;;;;;;;;;4953677;29;19914;-41
2023/10/26 08:29:31;;;;;;;;;;;;;;;;;;4953343;29;19915;-43
2023/10/26 08:31:57;;;;;;;;;;;;;;;;;;4953171;29;19914;-42
2023/10/26 08:34:23;;;;;;;;;;;;;;;;;;4953194;29;20364;-44
2023/10/26 08:36:49;;;;;;;;;;;;;;;;;;4953071;29;19966;-41
2023/10/26 08:39:16;;;;;;;;;;;;;;;;;;4953217;29;19914;-45
2023/10/26 08:41:42;;;;;;;;;;;;;;;;;;4953088;29;20387;-46
2023/10/26 08:44:08;;;;;;;;;;;;;;;;;;4953227;29;19968;-41
2023/10/26 08:46:34;;;;;;;;;;;;;;;;;;4952513;28;19942;-43
2023/10/26 08:49:01;;;;;;;;;;;;;;;;;;4952866;29;19957;-41
2023/10/26 08:51:27;;;;;;;;;;;;;;;;;;4953104;29;19910;-43
2023/10/26 08:53:54;;;;;;;;;;;;;;;;;;4952696;29;19914;-43
2023/10/26 08:56:21;;;;;;;;;;;;;;;;;;4952843;29;19911;-44
2023/10/26 08:58:46;;;;;;;;;;;;;;;;;;4952644;29;20054;-43
2023/10/26 09:01:12;;;;;;;;;;;;;;;;;;4952813;29;20421;-45
2023/10/26 09:03:38;;;;;;;;;;;;;;;;;;4952912;29;19910;-42
2023/10/26 09:06:04;;;;;;;;;;;;;;;;;;4952908;29;19911;-43
2023/10/26 09:08:31;;;;;;;;;;;;;;;;;;4952407;29;19918;-48
2023/10/26 09:10:56;;;;;;;;;;;;;;;;;;4952541;29;19917;-46
2023/10/26 09:13:22;;;;;;;;;;;;;;;;;;4952091;29;19911;-48
2023/10/26 09:15:48;;;;;;;;;;;;;;;;;;4952364;29;19940;-47
2023/10/26 09:18:17;;;;;;;;;;;;;;;;;;4951207;29;19961;-48
2023/10/26 09:20:43;;;;;;;;;;;;;;;;;;4951298;29;19923;-47
2023/10/26 09:23:09;;;;;;;;;;;;;;;;;;4953119;29;19977;-48
2023/10/26 09:25:35;;;;;;;;;;;;;;;;;;4953093;29;19918;-45
2023/10/26 09:28:02;;;;;;;;;;;;;;;;;;4953366;29;20359;-43
2023/10/26 09:30:28;;;;;;;;;;;;;;;;;;4953509;29;19917;-45
2023/10/26 09:32:54;;;;;;;;;;;;;;;;;;4953468;29;20001;-45
2023/10/26 09:35:20;;;;;;;;;;;;;;;;;;4953302;29;19962;-45
2023/10/26 09:37:46;;;;;;;;;;;;;;;;;;4952999;29;20283;-44
2023/10/26 09:40:11;;;;;;;;;;;;;;;;;;4952070;29;19914;-46
2023/10/26 09:42:37;;;;;;;;;;;;;;;;;;4953038;29;19910;-46
2023/10/26 09:45:03;;;;;;;;;;;;;;;;;;4953303;29;19911;-46
2023/10/26 09:47:29;;;;;;;;;;;;;;;;;;4953022;29;19910;-47
2023/10/26 09:49:55;;;;;;;;;;;;;;;;;;4953212;29;19919;-46
2023/10/26 09:52:21;;;;;;;;;;;;;;;;;;4952751;29;20009;-43
2023/10/26 09:54:47;;;;;;;;;;;;;;;;;;4949387;29;19966;-48
2023/10/26 09:57:13;;;;;;;;;;;;;;;;;;4950352;29;19914;-45
2023/10/26 09:59:38;;;;;;;;;;;;;;;;;;4952896;28;19949;-45
2023/10/26 10:02:04;;;;;;;;;;;;;;;;;;4952664;29;20332;-48
2023/10/26 10:04:30;;;;;;;;;;;;;;;;;;4952653;29;19907;-48
2023/10/26 10:07:00;;;;;;;;;;;;;;;;;;4952490;29;19911;-47
2023/10/26 10:09:26;;;;;;;;;;;;;;;;;;4952788;29;19907;-48
2023/10/26 10:11:52;;;;;;;;;;;;;;;;;;4951699;29;19914;-48
2023/10/26 10:14:18;;;;;;;;;;;;;;;;;;4952396;29;20252;-47
2023/10/26 10:16:45;;;;;;;;;;;;;;;;;;4951435;29;19914;-48
2023/10/26 10:19:11;;;;;;;;;;;;;;;;;;4952803;29;19970;-49
2023/10/26 10:21:37;;;;;;;;;;;;;;;;;;4952905;29;20524;-47
2023/10/26 10:24:03;;;;;;;;;;;;;;;;;;4952368;29;19952;-46
2023/10/26 10:26:29;;;;;;;;;;;;;;;;;;4952253;29;19918;-46
2023/10/26 10:28:55;;;;;;;;;;;;;;;;;;4952445;29;19910;-50
2023/10/26 10:31:23;;;;;;;;;;;;;;;;;;4952516;29;19911;-50
2023/10/26 10:33:48;;;;;;;;;;;;;;;;;;4952462;29;19915;-51
2023/10/26 10:36:14;;;;;;;;;;;;;;;;;;4952065;29;19911;-50
2023/10/26 10:38:40;;;;;;;;;;;;;;;;;;4952533;29;19911;-46
2023/10/26 10:41:06;;;;;;;;;;;;;;;;;;4952488;29;19915;-47
2023/10/26 10:43:32;;;;;;;;;;;;;;;;;;4952258;29;19931;-49
2023/10/26 10:45:58;;;;;;;;;;;;;;;;;;4952191;29;20371;-45
2023/10/26 10:48:24;;;;;;;;;;;;;;;;;;4952181;29;19911;-47
2023/10/26 10:50:50;;;;;;;;;;;;;;;;;;4951957;29;19911;-48
2023/10/26 10:53:15;;;;;;;;;;;;;;;;;;4952235;29;20268;-46
2023/10/26 10:55:41;;;;;;;;;;;;;;;;;;4952394;29;19954;-47
2023/10/26 10:58:08;;;;;;;;;;;;;;;;;;4952138;29;20413;-48
2023/10/26 11:00:34;;;;;;;;;;;;;;;;;;4952176;29;20465;-50
2023/10/26 11:03:00;;;;;;;;;;;;;;;;;;4952341;29;19910;-49
2023/10/26 11:05:26;;;;;;;;;;;;;;;;;;4952318;29;20012;-49
2023/10/26 11:07:52;;;;;;;;;;;;;;;;;;4951983;29;19911;-45
2023/10/26 11:10:17;;;;;;;;;;;;;;;;;;4952841;28;19910;-49
2023/10/26 11:12:43;;;;;;;;;;;;;;;;;;4955939;29;20283;-49
2023/10/26 11:15:10;;;;;;;;;;;;;;;;;;4953369;28;19925;-48
2023/10/26 11:17:39;;;;;;;;;;;;;;;;;;4954089;28;19953;-45
2023/10/26 11:20:05;;;;;;;;;;;;;;;;;;4953286;29;19969;-48
2023/10/26 11:22:30;;;;;;;;;;;;;;;;;;4953853;29;19949;-49
2023/10/26 11:24:56;;;;;;;;;;;;;;;;;;4953839;29;20364;-46
2023/10/26 11:27:22;;;;;;;;;;;;;;;;;;4953963;29;19957;-45
2023/10/26 11:29:48;;;;;;;;;;;;;;;;;;4953960;29;20308;-49
2023/10/26 11:32:14;;;;;;;;;;;;;;;;;;4953729;29;19910;-50
2023/10/26 11:34:40;;;;;;;;;;;;;;;;;;4954044;28;21652;-46
2023/10/26 11:37:06;;;;;;;;;;;;;;;;;;4953736;28;19919;-47
2023/10/26 11:39:31;;;;;;;;;;;;;;;;;;4953152;28;19915;-47
2023/10/26 11:41:57;;;;;;;;;;;;;;;;;;4964551;28;19914;-49
2023/10/26 11:44:24;;;;;;;;;;;;;;;;;;4959837;28;19918;-47
2023/10/26 11:46:50;;;;;;;;;;;;;;;;;;4949062;28;20001;-47
2023/10/26 11:49:16;;;;;;;;;;;;;;;;;;4964716;28;19996;-48
2023/10/26 11:51:42;;;;;;;;;;;;;;;;;;4950899;28;19914;-46
2023/10/26 11:54:09;;;;;;;;;;;;;;;;;;4954263;29;19918;-47
2023/10/26 11:56:34;;;;;;;;;;;;;;;;;;4952378;28;19918;-48
2023/10/26 11:59:00;;;;;;;;;;;;;;;;;;4952787;28;19922;-46
2023/10/26 12:01:26;;;;;;;;;;;;;;;;;;4952013;28;19949;-48
2023/10/26 12:03:52;;;;;;;;;;;;;;;;;;4951938;28;19970;-45
2023/10/26 12:06:18;;;;;;;;;;;;;;;;;;4953187;28;19914;-47
2023/10/26 12:08:44;;;;;;;;;;;;;;;;;;4951675;28;19928;-47
2023/10/26 12:11:11;;;;;;;;;;;;;;;;;;4952721;28;19961;-46
2023/10/26 12:13:37;;;;;;;;;;;;;;;;;;4951442;28;19919;-50
2023/10/26 12:16:03;;;;;;;;;;;;;;;;;;4951507;28;19926;-50
2023/10/26 12:18:28;;;;;;;;;;;;;;;;;;4952271;28;19919;-47
2023/10/26 12:20:54;;;;;;;;;;;;;;;;;;4951983;28;19915;-50
2023/10/26 12:23:20;;;;;;;;;;;;;;;;;;4951668;28;19915;-49
2023/10/26 12:25:46;;;;;;;;;;;;;;;;;;4952459;28;21692;-46
2023/10/26 12:28:12;;;;;;;;;;;;;;;;;;4953272;28;19936;-46
2023/10/26 12:30:38;;;;;;;;;;;;;;;;;;4953328;29;19910;-49
2023/10/26 12:33:04;;;;;;;;;;;;;;;;;;4952436;28;19919;-48
2023/10/26 12:35:30;;;;;;;;;;;;;;;;;;4952736;29;19922;-48
2023/10/26 12:37:56;;;;;;;;;;;;;;;;;;4952102;29;19965;-48
2023/10/26 12:40:22;;;;;;;;;;;;;;;;;;4952754;29;20318;-48
2023/10/26 12:42:48;;;;;;;;;;;;;;;;;;4951728;28;20001;-47
2023/10/26 12:45:16;;;;;;;;;;;;;;;;;;4951521;28;19941;-46
2023/10/26 12:47:42;;;;;;;;;;;;;;;;;;4952996;28;19945;-47
2023/10/26 12:50:08;;;;;;;;;;;;;;;;;;4947159;28;19960;-48
2023/10/26 12:52:34;;;;;;;;;;;;;;;;;;4955165;28;19918;-44
2023/10/26 12:55:00;;;;;;;;;;;;;;;;;;4956668;28;19919;-48
2023/10/26 12:57:26;;;;;;;;;;;;;;;;;;4964715;28;19989;-45
2023/10/26 12:59:52;;;;;;;;;;;;;;;;;;4952074;29;19918;-46
2023/10/26 13:02:18;;;;;;;;;;;;;;;;;;4952153;28;19914;-50
2023/10/26 13:04:44;;;;;;;;;;;;;;;;;;4972709;28;19910;-43
2023/10/26 13:07:10;;;;;;;;;;;;;;;;;;4957168;28;19914;-46
2023/10/26 13:09:40;;;;;;;;;;;;;;;;;;4959669;28;19922;-49
2023/10/26 13:12:06;;;;;;;;;;;;;;;;;;4953379;28;19918;-49
2023/10/26 13:14:32;;;;;;;;;;;;;;;;;;4949795;29;20390;-45
2023/10/26 13:16:58;;;;;;;;;;;;;;;;;;4952594;28;20046;-47
2023/10/26 13:19:24;;;;;;;;;;;;;;;;;;4951073;29;19919;-48
2023/10/26 13:21:50;;;;;;;;;;;;;;;;;;4954073;28;19914;-46
2023/10/26 13:24:16;;;;;;;;;;;;;;;;;;4951292;29;20406;-48
2023/10/26 13:26:42;;;;;;;;;;;;;;;;;;4951218;28;19921;-46
2023/10/26 13:29:08;;;;;;;;;;;;;;;;;;4951643;29;19910;-45
2023/10/26 13:31:34;;;;;;;;;;;;;;;;;;4951369;29;19920;-44
2023/10/26 13:34:00;;;;;;;;;;;;;;;;;;4950716;28;20326;-44
2023/10/26 13:36:26;;;;;;;;;;;;;;;;;;4952948;28;19918;-47
2023/10/26 13:38:52;;;;;;;;;;;;;;;;;;4950192;29;19919;-44
2023/10/26 13:41:23;;;;;;;;;;;;;;;;;;4950169;29;19923;-48
2023/10/26 13:43:49;;;;;;;;;;;;;;;;;;4950392;29;20356;-46
2023/10/26 13:46:14;;;;;;;;;;;;;;;;;;4952112;29;19957;-47
2023/10/26 13:48:40;;;;;;;;;;;;;;;;;;4951999;29;19910;-49
2023/10/26 13:51:06;;;;;;;;;;;;;;;;;;4951887;29;19915;-44
2023/10/26 13:53:32;;;;;;;;;;;;;;;;;;4952152;29;19933;-45
2023/10/26 13:55:58;;;;;;;;;;;;;;;;;;4951778;29;20371;-47
2023/10/26 13:58:24;;;;;;;;;;;;;;;;;;4950681;29;19954;-44
2023/10/26 14:00:50;;;;;;;;;;;;;;;;;;4950264;29;19924;-48
2023/10/26 14:03:16;;;;;;;;;;;;;;;;;;4949317;29;19918;-49
2023/10/26 14:05:42;;;;;;;;;;;;;;;;;;4951232;29;19915;-47
2023/10/26 14:08:08;;;;;;;;;;;;;;;;;;4950922;29;20349;-48
2023/10/26 14:10:34;;;;;;;;;;;;;;;;;;4952048;29;19965;-46
2023/10/26 14:13:00;;;;;;;;;;;;;;;;;;4950830;29;19938;-47
2023/10/26 14:15:27;;;;;;;;;;;;;;;;;;4951373;29;20371;-49
2023/10/26 14:17:53;;;;;;;;;;;;;;;;;;4951289;28;19963;-44
2023/10/26 14:20:19;;;;;;;;;;;;;;;;;;4958950;28;19957;-44
2023/10/26 14:22:44;;;;;;;;;;;;;;;;;;4954731;28;20514;-47
2023/10/26 14:25:10;;;;;;;;;;;;;;;;;;4950113;28;19921;-46
2023/10/26 14:27:36;;;;;;;;;;;;;;;;;;4950548;29;19969;-46
2023/10/26 14:30:02;;;;;;;;;;;;;;;;;;4951748;29;19922;-46
2023/10/26 14:32:28;;;;;;;;;;;;;;;;;;4950402;28;20525;-46
2023/10/26 14:34:54;;;;;;;;;;;;;;;;;;4949934;29;19918;-45
2023/10/26 14:37:20;;;;;;;;;;;;;;;;;;4949628;28;19911;-47
2023/10/26 14:39:46;;;;;;;;;;;;;;;;;;4948950;28;19918;-45
2023/10/26 14:42:15;;;;;;;;;;;;;;;;;;4949028;28;19910;-46
2023/10/26 14:44:40;;;;;;;;;;;;;;;;;;4964718;28;20322;-44
2023/10/26 14:47:07;;;;;;;;;;;;;;;;;;4953467;29;19914;-45
2023/10/26 14:49:33;;;;;;;;;;;;;;;;;;4953672;29;20005;-44
2023/10/26 14:51:59;;;;;;;;;;;;;;;;;;4953814;29;20013;-45
2023/10/26 14:54:26;;;;;;;;;;;;;;;;;;4952498;29;19965;-45
2023/10/26 14:56:52;;;;;;;;;;;;;;;;;;4954232;28;19910;-45
2023/10/26 14:59:18;;;;;;;;;;;;;;;;;;4953302;28;19961;-48
2023/10/26 15:01:44;;;;;;;;;;;;;;;;;;4953328;29;20010;-46
2023/10/26 15:04:10;;;;;;;;;;;;;;;;;;4956734;28;19911;-48
2023/10/26 15:06:36;;;;;;;;;;;;;;;;;;4953573;29;19919;-47
2023/10/26 15:09:02;;;;;;;;;;;;;;;;;;4953595;28;19942;-46
2023/10/26 15:11:28;;;;;;;;;;;;;;;;;;4949563;28;19918;-44
2023/10/26 15:13:56;;;;;;;;;;;;;;;;;;4952816;28;19918;-47
2023/10/26 15:16:23;;;;;;;;;;;;;;;;;;4952838;29;19914;-46
2023/10/26 15:18:48;;;;;;;;;;;;;;;;;;4953382;29;19919;-46
2023/10/26 15:21:14;;;;;;;;;;;;;;;;;;4953412;29;20389;-44
2023/10/26 15:23:40;;;;;;;;;;;;;;;;;;4952943;29;19961;-45
2023/10/26 15:26:06;;;;;;;;;;;;;;;;;;4953103;29;20364;-44
2023/10/26 15:28:32;;;;;;;;;;;;;;;;;;4953723;29;19918;-47
2023/10/26 15:30:58;;;;;;;;;;;;;;;;;;4953520;28;19922;-44
2023/10/26 15:33:24;;;;;;;;;;;;;;;;;;4953941;28;19957;-45
2023/10/26 15:35:50;;;;;;;;;;;;;;;;;;4956781;28;19977;-44
2023/10/26 15:38:16;;;;;;;;;;;;;;;;;;4951137;28;19929;-46
2023/10/26 15:40:42;;;;;;;;;;;;;;;;;;4953862;28;19938;-48
2023/10/26 15:43:08;;;;;;;;;;;;;;;;;;4951076;28;19918;-44
2023/10/26 15:45:33;;;;;;;;;;;;;;;;;;4961622;28;20371;-44
2023/10/26 15:47:59;;;;;;;;;;;;;;;;;;4962467;28;20070;-45
2023/10/26 15:50:25;;;;;;;;;;;;;;;;;;4953135;28;19926;-46
2023/10/26 15:52:51;;;;;;;;;;;;;;;;;;4952615;28;19953;-47
2023/10/26 15:55:17;;;;;;;;;;;;;;;;;;4953187;29;19958;-48
2023/10/26 15:57:43;;;;;;;;;;;;;;;;;;4952615;28;19918;-45
2023/10/26 16:00:09;;;;;;;;;;;;;;;;;;4953471;29;19910;-44
2023/10/26 16:02:36;;;;;;;;;;;;;;;;;;4953902;29;19914;-48
2023/10/26 16:05:02;;;;;;;;;;;;;;;;;;4953876;29;19911;-45
2023/10/26 16:07:30;;;;;;;;;;;;;;;;;;4952329;29;20355;-48
2023/10/26 16:09:58;;;;;;;;;;;;;;;;;;4952550;29;19918;-44
2023/10/26 16:12:24;;;;;;;;;;;;;;;;;;4953011;29;19942;-47
2023/10/26 16:14:50;;;;;;;;;;;;;;;;;;4951842;29;20400;-44
2023/10/26 16:17:16;;;;;;;;;;;;;;;;;;4952808;29;19915;-43
2023/10/26 16:19:41;;;;;;;;;;;;;;;;;;4953010;29;20375;-44
2023/10/26 16:22:08;;;;;;;;;;;;;;;;;;4953102;29;19933;-43
2023/10/26 16:24:33;;;;;;;;;;;;;;;;;;4953486;29;19981;-47
2023/10/26 16:26:59;;;;;;;;;;;;;;;;;;4952779;29;20379;-46
2023/10/26 16:29:25;;;;;;;;;;;;;;;;;;4951686;29;20377;-45
2023/10/26 16:31:51;;;;;;;;;;;;;;;;;;4952091;29;19914;-43
2023/10/26 16:34:17;;;;;;;;;;;;;;;;;;4952464;29;19914;-46
2023/10/26 16:36:43;;;;;;;;;;;;;;;;;;4951944;29;19925;-45
2023/10/26 16:39:11;;;;;;;;;;;;;;;;;;4952234;29;20635;-47
2023/10/26 16:41:37;;;;;;;;;;;;;;;;;;4952398;29;19965;-46
2023/10/26 16:44:03;;;;;;;;;;;;;;;;;;4952966;29;19946;-46
2023/10/26 16:46:29;;;;;;;;;;;;;;;;;;4952671;29;19997;-45
2023/10/26 16:48:54;;;;;;;;;;;;;;;;;;4952503;29;19914;-45
2023/10/26 16:51:20;;;;;;;;;;;;;;;;;;4952525;29;20391;-45
2023/10/26 16:53:46;;;;;;;;;;;;;;;;;;4952442;29;19919;-44
2023/10/26 16:56:12;;;;;;;;;;;;;;;;;;4950080;29;19925;-46
2023/10/26 16:58:38;;;;;;;;;;;;;;;;;;4951217;29;19915;-43
2023/10/26 17:01:04;;;;;;;;;;;;;;;;;;4953177;29;19993;-47
2023/10/26 17:03:30;;;;;;;;;;;;;;;;;;4952332;29;19915;-47
2023/10/26 17:05:56;;;;;;;;;;;;;;;;;;4951446;29;20015;-46
2023/10/26 17:08:22;;;;;;;;;;;;;;;;;;4950999;28;19918;-44
2023/10/26 17:10:48;;;;;;;;;;;;;;;;;;4951056;29;20345;-49
2023/10/26 17:13:13;;;;;;;;;;;;;;;;;;4951864;29;19960;-46
2023/10/26 17:15:39;;;;;;;;;;;;;;;;;;4956316;28;19957;-44
2023/10/26 17:18:05;;;;;;;;;;;;;;;;;;4970848;28;20287;-44
2023/10/26 17:20:31;;;;;;;;;;;;;;;;;;4970544;28;19910;-48
2023/10/26 17:22:57;;;;;;;;;;;;;;;;;;4970619;28;19922;-46
2023/10/26 17:25:23;;;;;;;;;;;;;;;;;;4961585;28;19914;-47
2023/10/26 17:27:50;;;;;;;;;;;;;;;;;;4951755;29;20409;-44
2023/10/26 17:30:16;;;;;;;;;;;;;;;;;;4950280;29;19919;-46
2023/10/26 17:32:42;;;;;;;;;;;;;;;;;;4952058;29;19911;-45
2023/10/26 17:35:08;;;;;;;;;;;;;;;;;;4951480;29;19922;-45
2023/10/26 17:37:34;;;;;;;;;;;;;;;;;;4951596;29;19959;-45
2023/10/26 17:40:00;;;;;;;;;;;;;;;;;;4951193;29;20699;-46
2023/10/26 17:42:25;;;;;;;;;;;;;;;;;;4951921;29;19921;-49
2023/10/26 17:44:51;;;;;;;;;;;;;;;;;;4951674;29;20359;-45
2023/10/26 17:47:17;;;;;;;;;;;;;;;;;;4951554;29;19910;-48
2023/10/26 17:49:43;;;;;;;;;;;;;;;;;;4950864;29;20009;-47
2023/10/26 17:52:09;;;;;;;;;;;;;;;;;;4951967;29;19911;-45
2023/10/26 17:54:35;;;;;;;;;;;;;;;;;;4951106;29;19919;-47
2023/10/26 17:57:02;;;;;;;;;;;;;;;;;;4965599;28;20517;-44
2023/10/26 17:59:28;;;;;;;;;;;;;;;;;;4969672;28;20001;-48
2023/10/26 18:01:54;;;;;;;;;;;;;;;;;;4969903;28;20049;-46
2023/10/26 18:04:20;;;;;;;;;;;;;;;;;;4969269;28;19953;-49
2023/10/26 18:06:48;;;;;;;;;;;;;;;;;;4949083;29;20459;-48
2023/10/26 18:09:13;;;;;;;;;;;;;;;;;;4949942;29;19910;-47
2023/10/26 18:11:39;;;;;;;;;;;;;;;;;;4949476;29;19957;-46
2023/10/26 18:14:05;;;;;;;;;;;;;;;;;;4964661;28;19928;-49
2023/10/26 18:16:31;;;;;;;;;;;;;;;;;;4950038;29;19917;-48
2023/10/26 18:18:59;;;;;;;;;;;;;;;;;;4948168;28;19925;-49
2023/10/26 18:21:24;;;;;;;;;;;;;;;;;;4948707;29;19917;-47
2023/10/26 18:23:50;;;;;;;;;;;;;;;;;;4949049;29;19910;-45
2023/10/26 18:26:16;;;;;;;;;;;;;;;;;;4947363;29;19969;-49
2023/10/26 18:28:42;;;;;;;;;;;;;;;;;;4948332;29;19914;-46
2023/10/26 18:31:08;;;;;;;;;;;;;;;;;;4948148;29;19915;-50
2023/10/26 18:33:34;;;;;;;;;;;;;;;;;;4948133;29;19911;-46
2023/10/26 18:36:00;;;;;;;;;;;;;;;;;;4946498;29;19918;-46
2023/10/26 18:38:26;;;;;;;;;;;;;;;;;;4948650;29;20322;-50
2023/10/26 18:40:52;;;;;;;;;;;;;;;;;;4948338;29;19911;-49
2023/10/26 18:43:18;;;;;;;;;;;;;;;;;;4947745;29;19962;-49
2023/10/26 18:45:43;;;;;;;;;;;;;;;;;;4947988;29;20435;-48
2023/10/26 18:48:09;;;;;;;;;;;;;;;;;;4948117;29;19954;-47
2023/10/26 18:50:35;;;;;;;;;;;;;;;;;;4947829;29;19919;-49
2023/10/26 18:53:02;;;;;;;;;;;;;;;;;;4948008;29;19957;-46
2023/10/26 18:55:28;;;;;;;;;;;;;;;;;;4948285;29;19915;-47
2023/10/26 18:57:54;;;;;;;;;;;;;;;;;;4948146;29;19911;-48
2023/10/26 19:00:20;;;;;;;;;;;;;;;;;;4947817;29;19910;-46
2023/10/26 19:02:46;;;;;;;;;;;;;;;;;;4946974;28;20350;-48
2023/10/26 19:05:12;;;;;;;;;;;;;;;;;;4949512;28;19942;-50
2023/10/26 19:07:37;;;;;;;;;;;;;;;;;;4948788;28;20017;-46
2023/10/26 19:10:03;;;;;;;;;;;;;;;;;;4961537;28;19918;-46
2023/10/26 19:12:29;;;;;;;;;;;;;;;;;;4950811;28;19968;-46
2023/10/26 19:14:56;;;;;;;;;;;;;;;;;;4957998;28;19968;-45
2023/10/26 19:17:21;;;;;;;;;;;;;;;;;;4950433;28;20417;-45
2023/10/26 19:19:47;;;;;;;;;;;;;;;;;;4957810;28;19922;-46
2023/10/26 19:22:13;;;;;;;;;;;;;;;;;;4957088;28;19918;-47
2023/10/26 19:24:39;;;;;;;;;;;;;;;;;;4954326;28;19921;-46
2023/10/26 19:27:05;;;;;;;;;;;;;;;;;;4946574;28;19966;-48
2023/10/26 19:29:31;;;;;;;;;;;;;;;;;;4948222;28;19915;-46
2023/10/26 19:31:57;;;;;;;;;;;;;;;;;;4948954;28;20002;-47
2023/10/26 19:34:23;;;;;;;;;;;;;;;;;;4950852;28;19918;-48
2023/10/26 19:36:48;;;;;;;;;;;;;;;;;;4948743;28;19926;-45
2023/10/26 19:39:14;;;;;;;;;;;;;;;;;;4955260;28;19914;-48
2023/10/26 19:41:40;;;;;;;;;;;;;;;;;;4953287;28;19949;-46
2023/10/26 19:44:07;;;;;;;;;;;;;;;;;;4965038;28;20348;-46
2023/10/26 19:46:33;;;;;;;;;;;;;;;;;;4951218;29;19998;-51
2023/10/26 19:48:59;;;;;;;;;;;;;;;;;;4950190;28;19919;-50
2023/10/26 19:51:25;;;;;;;;;;;;;;;;;;4950895;28;19921;-50
2023/10/26 19:53:52;;;;;;;;;;;;;;;;;;4950651;28;19915;-48
2023/10/26 19:56:18;;;;;;;;;;;;;;;;;;4951052;29;20295;-48
2023/10/26 19:58:43;;;;;;;;;;;;;;;;;;4950355;28;19911;-48
2023/10/26 20:01:12;;;;;;;;;;;;;;;;;;4963783;28;19921;-46
2023/10/26 20:03:38;;;;;;;;;;;;;;;;;;4950327;28;19969;-47
2023/10/26 20:06:04;;;;;;;;;;;;;;;;;;4960584;28;20008;-49
2023/10/26 20:08:30;;;;;;;;;;;;;;;;;;4950723;28;19918;-47
2023/10/26 20:10:55;;;;;;;;;;;;;;;;;;4950177;29;19925;-47
2023/10/26 20:13:21;;;;;;;;;;;;;;;;;;4950614;29;20374;-47
2023/10/26 20:15:47;;;;;;;;;;;;;;;;;;4950306;28;19918;-47
2023/10/26 20:18:13;;;;;;;;;;;;;;;;;;4951003;29;19922;-50
2023/10/26 20:20:39;;;;;;;;;;;;;;;;;;4949251;28;19962;-48
2023/10/26 20:23:05;;;;;;;;;;;;;;;;;;4949231;29;19914;-48
2023/10/26 20:25:31;;;;;;;;;;;;;;;;;;4949456;28;19957;-50
2023/10/26 20:27:57;;;;;;;;;;;;;;;;;;4950104;28;19937;-49
2023/10/26 20:30:23;;;;;;;;;;;;;;;;;;4949633;28;19914;-46
2023/10/26 20:32:48;;;;;;;;;;;;;;;;;;4949633;28;19914;-48
2023/10/26 20:35:14;;;;;;;;;;;;;;;;;;4950861;29;19922;-49
2023/10/26 20:37:40;;;;;;;;;;;;;;;;;;4950428;29;19910;-48
2023/10/26 20:40:06;;;;;;;;;;;;;;;;;;4949747;29;20450;-47
2023/10/26 20:42:32;;;;;;;;;;;;;;;;;;4949092;28;20002;-49
2023/10/26 20:44:58;;;;;;;;;;;;;;;;;;4948540;28;19980;-48
2023/10/26 20:47:24;;;;;;;;;;;;;;;;;;4953836;28;19915;-46
2023/10/26 20:49:50;;;;;;;;;;;;;;;;;;4948910;28;19970;-45
2023/10/26 20:52:16;;;;;;;;;;;;;;;;;;4957449;28;19977;-46
2023/10/26 20:54:42;;;;;;;;;;;;;;;;;;4963215;28;19918;-49
2023/10/26 20:57:08;;;;;;;;;;;;;;;;;;4964309;28;19914;-47
2023/10/26 20:59:34;;;;;;;;;;;;;;;;;;4949987;29;19915;-46
2023/10/26 21:02:00;;;;;;;;;;;;;;;;;;4949539;29;19911;-48
2023/10/26 21:04:25;;;;;;;;;;;;;;;;;;4964849;28;19915;-46
2023/10/26 21:06:51;;;;;;;;;;;;;;;;;;4949891;29;19953;-46
2023/10/26 21:09:17;;;;;;;;;;;;;;;;;;4949894;29;19914;-46
2023/10/26 21:11:43;;;;;;;;;;;;;;;;;;4950149;29;19910;-45
2023/10/26 21:14:10;;;;;;;;;;;;;;;;;;4964287;28;20188;-49
2023/10/26 21:16:36;;;;;;;;;;;;;;;;;;4949518;29;20307;-46
2023/10/26 21:19:02;;;;;;;;;;;;;;;;;;4949466;29;19918;-47
2023/10/26 21:21:28;;;;;;;;;;;;;;;;;;4949662;29;19910;-47
2023/10/26 21:23:54;;;;;;;;;;;;;;;;;;4949129;29;20197;-48
2023/10/26 21:26:20;;;;;;;;;;;;;;;;;;4949147;29;19911;-47
2023/10/26 21:28:47;;;;;;;;;;;;;;;;;;4950021;29;19918;-45
2023/10/26 21:31:13;;;;;;;;;;;;;;;;;;4949121;29;19911;-48
2023/10/26 21:33:39;;;;;;;;;;;;;;;;;;4964464;28;19981;-47
2023/10/26 21:36:07;;;;;;;;;;;;;;;;;;4949218;29;20371;-47
2023/10/26 21:38:32;;;;;;;;;;;;;;;;;;4948508;29;20307;-49
2023/10/26 21:40:58;;;;;;;;;;;;;;;;;;4949323;29;19911;-47
2023/10/26 21:43:24;;;;;;;;;;;;;;;;;;4948878;29;19910;-49
2023/10/26 21:45:50;;;;;;;;;;;;;;;;;;4964174;28;20384;-47
2023/10/26 21:48:16;;;;;;;;;;;;;;;;;;4947898;29;19918;-48
2023/10/26 21:50:42;;;;;;;;;;;;;;;;;;4948177;29;19910;-46
2023/10/26 21:53:08;;;;;;;;;;;;;;;;;;4947902;29;19911;-47